Sunday, November 19, 2017, 5:28 AM EST
Back to Local

K40B, Clayton Lake

Location: Ashland, ME, United States Lat: 46.617
Local Time: 5:28 AM EST (10:28 GMT) Lon: -69.533
Time Zone: US/Eastern Elev: 1030 ft

Show me the last for .
Show Decoded

2017-11-19 05:16 METAR K40B 191016Z AUTO VRB05KT 01/02 A2923 RMK AO1 SLP917 T00120015 57048 P0007
                 =
2017-11-19 04:16 METAR K40B 190916Z AUTO VRB02KT 01/01 A2928 RMK AO1 SLP935 T00070010 56050 =
2017-11-19 03:16 METAR K40B 190816Z AUTO VRB04KT 00/00 A2933 RMK AO1 SLP953 T10041002 57049 =
2017-11-19 02:16 METAR K40B 190716Z AUTO VRB05KT M01/M03 A2938 RMK AO1 SLP969 T10141032 58046 =
2017-11-19 01:16 METAR K40B 190616Z AUTO 09006KT 050V120 M01/M04 A2943 RMK AO1 SLP989 T10141039
                 11014 21027 58037 =
2017-11-19 00:16 METAR K40B 190516Z AUTO VRB04KT M01/M06 A2948 RMK AO1 SLP005 T10151060 410151108
                 57032 =
2017-11-18 23:16 METAR K40B 190416Z AUTO VRB03KT M02/M06 A2952 RMK AO1 SLP018 T10201063 58029 =
2017-11-18 22:16 METAR K40B 190316Z AUTO VRB05KT M02/M06 A2955 RMK AO1 SLP028 T10181065 58026 =
2017-11-18 21:16 METAR K40B 190216Z AUTO VRB04KT M02/M07 A2958 RMK AO1 SLP040 T10181067 56025 =
2017-11-18 20:16 METAR K40B 190116Z AUTO VRB04KT M02/M07 A2961 RMK AO1 SLP050 T10191068 58015 =
2017-11-18 19:16 METAR K40B 190016Z AUTO VRB02KT M03/M06 A2962 RMK AO1 SLP056 T10261060 11016
                 21031 58014 =
2017-11-18 18:16 METAR K40B 182316Z AUTO VRB02KT M03/M06 A2966 RMK AO1 SLP068 T10301062 55014 =
2017-11-18 17:16 METAR K40B 182216Z AUTO VRB03KT M03/M07 A2965 RMK AO1 SLP068 T10301065 56022 =
2017-11-18 16:16 METAR K40B 182116Z AUTO 00000KT M03/M07 A2966 RMK AO1 SLP073 T10271066 58025 =
2017-11-18 15:16 METAR K40B 182016Z AUTO VRB04KT M02/M07 A2970 RMK AO1 SLP086 T10251067 58019 =
2017-11-18 14:16 METAR K40B 181916Z AUTO 00000KT M02/M07 A2972 RMK AO1 SLP093 T10211071 58020 =
2017-11-18 13:16 METAR K40B 181816Z AUTO 00000KT M02/M07 A2974 RMK AO1 SLP102 T10171068 11017
                 21097 58023 =
2017-11-18 12:16 METAR K40B 181716Z AUTO 00000KT M03/M09 A2976 RMK AO1 SLP109 T10331086 56030 =
2017-11-18 11:16 METAR K40B 181616Z AUTO 00000KT M04/M09 A2978 RMK AO1 SLP117 T10441087 58023 =
2017-11-18 10:16 METAR K40B 181516Z AUTO VRB03KT M05/M10 A2981 RMK AO1 SLP128 T10541096 58011 =
2017-11-18 09:16 METAR K40B 181416Z AUTO VRB03KT M06/M10 A2985 RMK AO1 SLP141 T10561095 50004 =
2017-11-18 08:16 METAR K40B 181316Z AUTO 00000KT M08/M11 A2985 RMK AO1 SLP142 T10841108 52007 =
2017-11-18 07:16 METAR K40B 181216Z AUTO VRB04KT M10/M11 A2985 RMK AO1 SLP140 T10961114 11085
                 21108 53004 =
2017-11-18 06:16 METAR K40B 181116Z AUTO VRB04KT M10/M12 A2984 RMK AO1 SLP136 T11011118 51010 =

Support USWX by starting your Amazon purchase here.